EmailTwitter


Observations de surface / France / LFBD (07510)

Régions: Québec | Canada | États-Unis | Europe | France | UK | Ailleurs
Station
Affichage
Infos & localisation pour LFBD (07510) | Aide pour décoder les METARs

Observations prises le 2017-11-20 à 00H00 UTC à BORDEAUX/MERIGNA, FR (LFBD)

Température: 2.0 Celsius

Point de rosée: 2.0 Celsius

Humidité relative: 100%

Vents: Variable à 4 km/h ou 2 noeuds.

Pression au niveau moyen de la mer: 102.60 kilopascals.

Visibilité horizontale: 3.73 milles terrestres ou 5.97 kilomètres.

Observation METAR:

LFBD 200000Z AUTO VRB02KT 6000 NSC 02/02 Q1026 TEMPO 0300 FG VV///=